Terminal Aerodrome Forecast
Issued by NWS Raleigh/Durham, NC

Home | Current Version | Previous Version | Text Only | Print | Product List | Glossary On
Versions: 1 2 3 4 5 6 7 8 9 10 11 12 13 14 15 16 17 18 19 20 21 22 23 24 25 26
000
FTUS42 KRAH 191733
TAFGSO
TAF
KGSO 191733Z 1918/2018 VRB04KT P6SM SCT250
     FM200600 00000KT P6SM -RA OVC050
     FM201100 08005KT 2SM -RA BR OVC004
     FM201500 VRB03KT 1SM BR OVC002=

USA.gov is the U.S. government's official web portal to all federal, state and local government web resources and services.